createdAt,value
2023-04-26T00:02:35.941Z,13.40
2023-04-26T00:07:38.597Z,14.10
2023-04-26T00:12:41.220Z,10.50
2023-04-26T00:17:44.036Z,15.50
2023-04-26T00:22:46.580Z,10.80
2023-04-26T00:27:49.955Z,13.80
2023-04-26T00:32:52.574Z,17.40
2023-04-26T00:37:55.110Z,16.00
2023-04-26T00:42:59.126Z,14.50
2023-04-26T00:48:02.633Z,15.60
2023-04-26T00:53:06.129Z,10.70
2023-04-26T00:58:08.911Z,12.40
2023-04-26T01:03:11.883Z,12.90
2023-04-26T01:08:17.211Z,15.00
2023-04-26T01:13:19.812Z,18.60
2023-04-26T01:18:22.361Z,14.00
2023-04-26T01:23:25.008Z,11.50
2023-04-26T01:28:27.556Z,13.20
2023-04-26T01:33:30.345Z,14.60
2023-04-26T01:38:32.868Z,14.70
2023-04-26T01:43:35.607Z,16.10
2023-04-26T01:48:38.096Z,16.10
2023-04-26T01:53:40.673Z,19.10
2023-04-26T01:58:43.177Z,16.00
2023-04-26T02:03:45.722Z,22.20
2023-04-26T02:08:49.166Z,24.80
2023-04-26T02:13:51.926Z,28.70
2023-04-26T02:18:54.944Z,29.90
2023-04-26T02:23:57.849Z,29.00
2023-04-26T02:29:00.381Z,30.00
2023-04-26T02:34:02.914Z,23.60
2023-04-26T02:39:05.761Z,22.50
2023-04-26T02:44:08.347Z,15.70
2023-04-26T02:49:10.914Z,18.00
2023-04-26T02:54:13.501Z,12.30
2023-04-26T02:59:16.271Z,11.80
2023-04-26T03:04:19.496Z,17.90
2023-04-26T03:09:22.404Z,26.00
2023-04-26T03:14:24.952Z,27.40
2023-04-26T03:19:30.695Z,21.10
2023-04-26T03:24:33.264Z,24.70
2023-04-26T03:29:36.008Z,31.50
2023-04-26T03:34:38.615Z,34.50
2023-04-26T03:39:41.182Z,15.50
2023-04-26T03:44:43.723Z,16.90
2023-04-26T03:49:46.273Z,16.10
2023-04-26T03:54:48.774Z,15.80
2023-04-26T03:59:51.411Z,9.40
2023-04-26T04:04:54.071Z,18.50
2023-04-26T04:09:56.693Z,20.60
2023-04-26T04:14:59.308Z,22.90
2023-04-26T04:20:05.070Z,24.90
2023-04-26T04:25:10.264Z,25.90
2023-04-26T04:30:13.000Z,19.30
2023-04-26T04:35:15.612Z,18.10
2023-04-26T04:40:18.376Z,13.30
2023-04-26T04:45:21.427Z,16.50
2023-04-26T04:50:24.232Z,10.30
2023-04-26T04:55:26.800Z,12.50
2023-04-26T05:00:30.441Z,12.70
2023-04-26T05:05:33.019Z,12.80
2023-04-26T05:10:36.140Z,20.80
2023-04-26T05:15:38.686Z,12.30
2023-04-26T05:20:41.489Z,12.70
2023-04-26T05:25:44.083Z,8.30
2023-04-26T05:30:46.659Z,12.70
2023-04-26T05:35:49.397Z,15.70
2023-04-26T05:40:51.968Z,9.80
2023-04-26T05:45:56.140Z,11.40
2023-04-26T05:50:58.736Z,13.40
2023-04-26T05:56:01.729Z,11.00
2023-04-26T06:01:04.433Z,9.00
2023-04-26T06:06:07.955Z,10.60
2023-04-26T06:11:10.794Z,8.50
2023-04-26T06:16:13.388Z,9.70
2023-04-26T06:21:15.947Z,7.90
2023-04-26T06:26:18.580Z,6.40
2023-04-26T06:31:22.840Z,9.90
2023-04-26T06:36:26.187Z,6.60
2023-04-26T06:41:28.741Z,8.20
2023-04-26T06:46:31.531Z,14.80
2023-04-26T06:51:34.428Z,8.70
2023-04-26T06:56:37.097Z,9.20
2023-04-26T07:01:40.045Z,5.10
2023-04-26T07:06:42.736Z,8.80
2023-04-26T07:11:48.590Z,9.20
2023-04-26T07:21:53.803Z,11.50
2023-04-26T07:26:56.856Z,8.00
2023-04-26T07:31:59.621Z,8.90
2023-04-26T07:37:02.346Z,4.70
2023-04-26T07:42:04.948Z,9.30
2023-04-26T07:47:14.344Z,11.00
2023-04-26T07:52:16.897Z,11.00
2023-04-26T07:57:19.512Z,9.50
2023-04-26T08:02:29.690Z,10.50
2023-04-26T08:07:40.350Z,6.40
2023-04-26T08:12:43.309Z,9.00
2023-04-26T08:17:46.123Z,8.40
2023-04-26T08:22:48.744Z,11.00
2023-04-26T08:27:52.045Z,9.50
2023-04-26T08:32:54.721Z,11.90
2023-04-26T08:37:57.456Z,7.40
2023-04-26T08:43:00.182Z,6.50
2023-04-26T08:48:07.211Z,9.90
2023-04-26T08:53:15.675Z,10.10
2023-04-26T08:58:18.914Z,8.90
2023-04-26T09:03:23.419Z,9.10
2023-04-26T09:08:28.215Z,7.90
2023-04-26T09:13:30.775Z,6.40
2023-04-26T09:18:34.110Z,9.70
2023-04-26T09:23:57.080Z,9.70
2023-04-26T09:29:19.148Z,8.20
2023-04-26T09:34:21.944Z,7.20
2023-04-26T09:39:40.118Z,7.70
2023-04-26T09:44:42.717Z,4.40
2023-04-26T09:49:51.413Z,10.80
2023-04-26T09:54:54.743Z,19.00
2023-04-26T09:59:57.459Z,18.30
2023-04-26T10:05:02.049Z,17.20
2023-04-26T10:10:06.205Z,16.30
2023-04-26T10:15:11.143Z,8.60
2023-04-26T10:20:17.135Z,8.30
2023-04-26T10:25:19.718Z,10.40
2023-04-26T10:30:23.286Z,7.20
2023-04-26T10:35:30.780Z,6.40
2023-04-26T10:40:38.119Z,5.70
2023-04-26T10:45:43.371Z,6.40
2023-04-26T10:51:01.546Z,8.20
2023-04-26T10:56:04.425Z,5.80
2023-04-26T11:01:20.600Z,5.70
2023-04-26T11:06:27.390Z,6.40
2023-04-26T11:11:32.828Z,5.50
2023-04-26T11:16:35.769Z,4.70
2023-04-26T11:21:38.465Z,6.60
2023-04-26T11:26:41.635Z,7.20
2023-04-26T11:31:51.415Z,5.40
2023-04-26T11:36:54.490Z,9.90
2023-04-26T11:42:17.328Z,7.70
2023-04-26T11:47:20.464Z,6.20
2023-04-26T11:52:23.132Z,7.10
2023-04-26T11:57:25.738Z,4.10
2023-04-26T12:02:30.325Z,8.00
2023-04-26T12:07:38.088Z,4.80
2023-04-26T12:12:45.291Z,5.80
2023-04-26T12:17:54.138Z,6.20
2023-04-26T12:23:09.703Z,4.20
2023-04-26T12:28:13.743Z,7.10
2023-04-26T12:33:17.900Z,6.30
2023-04-26T12:38:21.525Z,3.30
2023-04-26T12:43:26.070Z,4.70
2023-04-26T12:48:29.036Z,7.50
2023-04-26T12:53:31.751Z,5.10
2023-04-26T12:58:34.291Z,6.40
2023-04-26T13:03:37.158Z,7.60
2023-04-26T13:08:39.932Z,6.20
2023-04-26T13:13:44.621Z,6.00
2023-04-26T13:18:47.671Z,3.00
2023-04-26T13:23:50.289Z,7.10
2023-04-26T13:28:52.799Z,7.10
2023-04-26T13:33:55.668Z,8.00
2023-04-26T13:38:58.195Z,4.60
2023-04-26T13:44:05.235Z,5.00
2023-04-26T13:49:10.207Z,8.40
2023-04-26T13:54:12.780Z,9.50
2023-04-26T13:59:15.411Z,5.70
2023-04-26T14:04:18.139Z,6.10
2023-04-26T14:09:21.002Z,7.00
2023-04-26T14:14:23.716Z,5.60
2023-04-26T14:19:26.474Z,10.00
2023-04-26T14:24:29.103Z,7.40
2023-04-26T14:29:31.657Z,9.80
2023-04-26T14:34:38.985Z,7.50
2023-04-26T14:39:41.988Z,8.60
2023-04-26T14:44:46.388Z,11.10
2023-04-26T14:49:48.955Z,8.40
2023-04-26T14:54:51.710Z,6.00
2023-04-26T14:59:54.243Z,4.80
2023-04-26T15:04:56.773Z,6.00
2023-04-26T15:09:59.838Z,6.60
2023-04-26T15:15:03.639Z,6.00
2023-04-26T15:20:06.808Z,12.60
2023-04-26T15:25:10.164Z,6.60
2023-04-26T15:30:12.977Z,4.40
2023-04-26T15:35:16.075Z,6.50
2023-04-26T15:40:18.751Z,8.10
2023-04-26T15:45:21.602Z,3.90
2023-04-26T15:50:24.105Z,6.00
2023-04-26T15:55:27.629Z,4.10
2023-04-26T16:00:33.903Z,4.10
2023-04-26T16:05:36.469Z,5.40
2023-04-26T16:10:39.095Z,5.50
2023-04-26T16:15:41.781Z,5.30
2023-04-26T16:20:44.360Z,3.70
2023-04-26T16:25:47.020Z,5.20
2023-04-26T16:30:49.564Z,7.10
2023-04-26T16:35:53.610Z,6.50
2023-04-26T16:40:58.050Z,4.10
2023-04-26T16:46:04.817Z,4.40
2023-04-26T16:51:08.006Z,8.00
2023-04-26T16:56:11.015Z,3.40
2023-04-26T17:01:13.672Z,4.60
2023-04-26T17:06:16.430Z,3.70
2023-04-26T17:11:19.108Z,3.10
2023-04-26T17:16:21.680Z,4.20
2023-04-26T17:21:24.339Z,8.60
2023-04-26T17:26:27.793Z,7.70
2023-04-26T17:31:30.392Z,7.30
2023-04-26T17:36:32.993Z,6.00
2023-04-26T17:41:35.644Z,4.70
2023-04-26T17:46:38.211Z,5.00
2023-04-26T17:51:40.818Z,7.20
2023-04-26T17:56:43.584Z,3.60
2023-04-26T18:01:46.567Z,3.20
2023-04-26T18:06:49.173Z,4.60
2023-04-26T18:11:51.870Z,5.70
2023-04-26T18:16:54.634Z,5.20
2023-04-26T18:21:57.171Z,6.40
2023-04-26T18:26:59.842Z,8.70
2023-04-26T18:32:02.402Z,4.60
2023-04-26T18:37:06.064Z,4.60
2023-04-26T18:42:08.687Z,9.10
2023-04-26T18:47:11.787Z,5.80
2023-04-26T18:52:14.420Z,6.60
2023-04-26T18:57:21.968Z,6.20
2023-04-26T19:02:25.173Z,12.50
2023-04-26T19:07:42.653Z,16.20
2023-04-26T19:12:45.431Z,10.80
2023-04-26T19:17:50.038Z,9.40
2023-04-26T19:22:53.168Z,9.90
2023-04-26T19:27:55.774Z,13.00
2023-04-26T19:32:58.368Z,8.70
2023-04-26T19:38:01.053Z,11.90
2023-04-26T19:43:03.628Z,7.10
2023-04-26T19:48:10.926Z,9.20
2023-04-26T19:53:14.996Z,5.60
2023-04-26T19:58:18.318Z,10.10
2023-04-26T20:03:21.187Z,9.70
2023-04-26T20:08:23.829Z,8.30
2023-04-26T20:13:26.710Z,11.40
2023-04-26T20:18:29.282Z,9.60
2023-04-26T20:23:32.479Z,6.30
2023-04-26T20:28:35.152Z,5.20
2023-04-26T20:33:41.387Z,7.20
2023-04-26T20:38:44.199Z,3.80
2023-04-26T20:43:46.718Z,9.90
2023-04-26T20:48:49.704Z,5.30
2023-04-26T20:53:52.531Z,7.90
2023-04-26T20:58:55.056Z,6.50
2023-04-26T21:03:57.682Z,6.90
2023-04-26T21:09:00.344Z,7.30
2023-04-26T21:14:04.787Z,7.60
2023-04-26T21:19:08.387Z,7.80
2023-04-26T21:24:11.348Z,6.80
2023-04-26T21:29:14.136Z,10.80
2023-04-26T21:34:16.825Z,8.80
2023-04-26T21:39:19.532Z,7.10
2023-04-26T21:44:22.237Z,7.60
2023-04-26T21:49:25.004Z,7.10
2023-04-26T21:54:28.233Z,9.60
2023-04-26T21:59:31.124Z,5.70
2023-04-26T22:04:33.859Z,5.80
2023-04-26T22:09:36.622Z,6.70
2023-04-26T22:14:39.401Z,9.60
2023-04-26T22:19:42.159Z,8.90
2023-04-26T22:24:44.927Z,12.60
2023-04-26T22:29:47.712Z,12.90
2023-04-26T22:34:50.565Z,8.60
2023-04-26T22:39:53.657Z,13.10
2023-04-26T22:44:56.752Z,18.90
2023-04-26T22:49:59.565Z,20.70
2023-04-26T22:55:02.856Z,18.60
2023-04-26T23:00:09.990Z,10.80
2023-04-26T23:05:12.906Z,19.70
2023-04-26T23:10:15.771Z,21.10
2023-04-26T23:15:18.745Z,20.20
2023-04-26T23:20:21.504Z,24.00
2023-04-26T23:25:24.289Z,30.30
2023-04-26T23:30:27.012Z,25.00
2023-04-26T23:35:29.799Z,18.90
2023-04-26T23:40:32.567Z,14.90
2023-04-26T23:45:35.368Z,19.70
2023-04-26T23:50:38.081Z,12.10
2023-04-26T23:55:40.963Z,13.80
